sensor_id;sensor_type;location;lat;lon;timestamp;temperature;humidity
32446;DHT22;18899;50.748;7.102;2023-02-28T00:02:20;1.60;99.90
32446;DHT22;18899;50.748;7.102;2023-02-28T00:04:45;1.50;99.90
32446;DHT22;18899;50.748;7.102;2023-02-28T00:07:18;1.50;99.90
32446;DHT22;18899;50.748;7.102;2023-02-28T00:09:44;1.40;99.90
32446;DHT22;18899;50.748;7.102;2023-02-28T00:12:09;1.30;99.90
32446;DHT22;18899;50.748;7.102;2023-02-28T00:14:40;1.30;99.90
32446;DHT22;18899;50.748;7.102;2023-02-28T00:17:05;1.30;99.90
32446;DHT22;18899;50.748;7.102;2023-02-28T00:19:31;1.40;99.90
32446;DHT22;18899;50.748;7.102;2023-02-28T00:21:56;1.40;99.90
32446;DHT22;18899;50.748;7.102;2023-02-28T00:24:22;1.40;99.90
32446;DHT22;18899;50.748;7.102;2023-02-28T00:26:47;1.40;99.90
32446;DHT22;18899;50.748;7.102;2023-02-28T00:29:13;1.40;99.90
32446;DHT22;18899;50.748;7.102;2023-02-28T00:31:38;1.20;99.90
32446;DHT22;18899;50.748;7.102;2023-02-28T00:34:04;1.20;99.90
32446;DHT22;18899;50.748;7.102;2023-02-28T00:36:29;1.20;99.90
32446;DHT22;18899;50.748;7.102;2023-02-28T00:38:55;1.30;99.90
32446;DHT22;18899;50.748;7.102;2023-02-28T00:41:20;1.30;99.90
32446;DHT22;18899;50.748;7.102;2023-02-28T00:43:46;1.20;99.90
32446;DHT22;18899;50.748;7.102;2023-02-28T00:46:11;0.90;99.90
32446;DHT22;18899;50.748;7.102;2023-02-28T00:48:37;0.90;99.90
32446;DHT22;18899;50.748;7.102;2023-02-28T00:51:03;0.80;99.90
32446;DHT22;18899;50.748;7.102;2023-02-28T00:53:29;0.90;99.90
32446;DHT22;18899;50.748;7.102;2023-02-28T00:55:54;1.00;99.90
32446;DHT22;18899;50.748;7.102;2023-02-28T00:58:20;1.00;99.90
32446;DHT22;18899;50.748;7.102;2023-02-28T01:00:46;0.90;99.90
32446;DHT22;18899;50.748;7.102;2023-02-28T01:03:18;1.00;99.90
32446;DHT22;18899;50.748;7.102;2023-02-28T01:05:44;1.10;99.90
32446;DHT22;18899;50.748;7.102;2023-02-28T01:08:09;1.20;99.90
32446;DHT22;18899;50.748;7.102;2023-02-28T01:10:35;1.10;99.90
32446;DHT22;18899;50.748;7.102;2023-02-28T01:13:02;1.10;99.90
32446;DHT22;18899;50.748;7.102;2023-02-28T01:15:28;1.10;99.90
32446;DHT22;18899;50.748;7.102;2023-02-28T01:17:54;1.10;99.90
32446;DHT22;18899;50.748;7.102;2023-02-28T01:20:19;1.00;99.90
32446;DHT22;18899;50.748;7.102;2023-02-28T01:22:45;1.00;99.90
32446;DHT22;18899;50.748;7.102;2023-02-28T01:25:10;1.10;99.90
32446;DHT22;18899;50.748;7.102;2023-02-28T01:27:36;1.20;99.90
32446;DHT22;18899;50.748;7.102;2023-02-28T01:30:02;1.20;99.90
32446;DHT22;18899;50.748;7.102;2023-02-28T01:32:28;1.20;99.90
32446;DHT22;18899;50.748;7.102;2023-02-28T01:34:54;1.20;99.90
32446;DHT22;18899;50.748;7.102;2023-02-28T01:37:20;1.20;99.90
32446;DHT22;18899;50.748;7.102;2023-02-28T01:39:45;1.20;99.90
32446;DHT22;18899;50.748;7.102;2023-02-28T01:42:11;1.00;99.90
32446;DHT22;18899;50.748;7.102;2023-02-28T01:45:04;1.00;99.90
32446;DHT22;18899;50.748;7.102;2023-02-28T01:47:35;0.90;99.90
32446;DHT22;18899;50.748;7.102;2023-02-28T01:50:05;0.60;99.90
32446;DHT22;18899;50.748;7.102;2023-02-28T01:52:32;0.50;99.90
32446;DHT22;18899;50.748;7.102;2023-02-28T01:54:59;0.70;99.90
32446;DHT22;18899;50.748;7.102;2023-02-28T01:57:31;0.70;99.90
32446;DHT22;18899;50.748;7.102;2023-02-28T02:00:06;0.80;99.90
32446;DHT22;18899;50.748;7.102;2023-02-28T02:02:33;0.80;99.90
32446;DHT22;18899;50.748;7.102;2023-02-28T02:05:10;0.80;99.90
32446;DHT22;18899;50.748;7.102;2023-02-28T02:07:39;0.70;99.90
32446;DHT22;18899;50.748;7.102;2023-02-28T02:10:13;0.80;99.90
32446;DHT22;18899;50.748;7.102;2023-02-28T02:12:53;0.90;99.90
32446;DHT22;18899;50.748;7.102;2023-02-28T02:21:18;0.60;99.90
32446;DHT22;18899;50.748;7.102;2023-02-28T02:24:04;0.40;99.90
32446;DHT22;18899;50.748;7.102;2023-02-28T02:26:51;0.60;99.90
32446;DHT22;18899;50.748;7.102;2023-02-28T02:31:57;0.70;99.90
32446;DHT22;18899;50.748;7.102;2023-02-28T02:34:49;0.40;99.90
32446;DHT22;18899;50.748;7.102;2023-02-28T02:42:55;0.20;99.90
32446;DHT22;18899;50.748;7.102;2023-02-28T02:48:10;0.30;99.90
32446;DHT22;18899;50.748;7.102;2023-02-28T02:50:46;0.30;99.90
32446;DHT22;18899;50.748;7.102;2023-02-28T02:53:13;0.30;99.90
32446;DHT22;18899;50.748;7.102;2023-02-28T02:55:43;0.50;99.90
32446;DHT22;18899;50.748;7.102;2023-02-28T02:58:14;0.90;99.90
32446;DHT22;18899;50.748;7.102;2023-02-28T03:00:51;0.80;99.90
32446;DHT22;18899;50.748;7.102;2023-02-28T03:03:19;1.00;99.90
32446;DHT22;18899;50.748;7.102;2023-02-28T03:05:58;1.00;99.90
32446;DHT22;18899;50.748;7.102;2023-02-28T03:08:26;0.80;99.90
32446;DHT22;18899;50.748;7.102;2023-02-28T03:10:56;0.90;99.90
32446;DHT22;18899;50.748;7.102;2023-02-28T03:21:43;0.90;99.90
32446;DHT22;18899;50.748;7.102;2023-02-28T03:24:17;0.70;99.90
32446;DHT22;18899;50.748;7.102;2023-02-28T03:26:50;0.60;99.90
32446;DHT22;18899;50.748;7.102;2023-02-28T03:29:23;0.80;99.90
32446;DHT22;18899;50.748;7.102;2023-02-28T03:34:29;0.70;99.90
32446;DHT22;18899;50.748;7.102;2023-02-28T03:37:02;0.80;99.90
32446;DHT22;18899;50.748;7.102;2023-02-28T03:39:49;0.70;99.90
32446;DHT22;18899;50.748;7.102;2023-02-28T03:42:19;0.60;99.90
32446;DHT22;18899;50.748;7.102;2023-02-28T03:44:49;0.50;99.90
32446;DHT22;18899;50.748;7.102;2023-02-28T03:47:39;0.70;99.90
32446;DHT22;18899;50.748;7.102;2023-02-28T03:50:17;0.70;99.90
32446;DHT22;18899;50.748;7.102;2023-02-28T03:52:49;0.80;99.90
32446;DHT22;18899;50.748;7.102;2023-02-28T03:55:16;0.70;99.90
32446;DHT22;18899;50.748;7.102;2023-02-28T03:57:53;0.70;99.90
32446;DHT22;18899;50.748;7.102;2023-02-28T04:00:39;0.70;99.90
32446;DHT22;18899;50.748;7.102;2023-02-28T04:03:06;0.60;99.90
32446;DHT22;18899;50.748;7.102;2023-02-28T04:05:32;0.60;99.90
32446;DHT22;18899;50.748;7.102;2023-02-28T04:08:06;0.50;99.90
32446;DHT22;18899;50.748;7.102;2023-02-28T04:10:32;0.40;99.90
32446;DHT22;18899;50.748;7.102;2023-02-28T04:12:58;0.30;99.90
32446;DHT22;18899;50.748;7.102;2023-02-28T04:15:23;0.00;99.90
32446;DHT22;18899;50.748;7.102;2023-02-28T04:17:50;0.00;99.90
32446;DHT22;18899;50.748;7.102;2023-02-28T04:20:15;0.00;99.90
32446;DHT22;18899;50.748;7.102;2023-02-28T04:22:41;0.00;99.90
32446;DHT22;18899;50.748;7.102;2023-02-28T04:25:07;0.00;99.90
32446;DHT22;18899;50.748;7.102;2023-02-28T04:27:33;0.00;99.90
32446;DHT22;18899;50.748;7.102;2023-02-28T04:29:59;0.00;99.90
32446;DHT22;18899;50.748;7.102;2023-02-28T04:32:24;0.10;99.90
32446;DHT22;18899;50.748;7.102;2023-02-28T04:34:50;0.00;99.90
32446;DHT22;18899;50.748;7.102;2023-02-28T04:37:15;-0.10;99.90
32446;DHT22;18899;50.748;7.102;2023-02-28T04:39:42;-0.10;99.90
32446;DHT22;18899;50.748;7.102;2023-02-28T04:42:07;-0.10;99.90
32446;DHT22;18899;50.748;7.102;2023-02-28T04:44:33;0.10;99.90
32446;DHT22;18899;50.748;7.102;2023-02-28T04:46:59;0.10;99.90
32446;DHT22;18899;50.748;7.102;2023-02-28T04:49:25;0.10;99.90
32446;DHT22;18899;50.748;7.102;2023-02-28T04:51:51;0.10;99.90
32446;DHT22;18899;50.748;7.102;2023-02-28T04:54:18;0.20;99.90
32446;DHT22;18899;50.748;7.102;2023-02-28T04:56:43;0.10;99.90
32446;DHT22;18899;50.748;7.102;2023-02-28T04:59:09;0.00;99.90
32446;DHT22;18899;50.748;7.102;2023-02-28T05:01:34;-0.10;99.90
32446;DHT22;18899;50.748;7.102;2023-02-28T05:04:02;-0.20;99.90
32446;DHT22;18899;50.748;7.102;2023-02-28T05:06:30;-0.20;99.90
32446;DHT22;18899;50.748;7.102;2023-02-28T05:08:57;-0.30;99.90
32446;DHT22;18899;50.748;7.102;2023-02-28T05:13:51;-0.30;99.90
32446;DHT22;18899;50.748;7.102;2023-02-28T05:16:18;-0.30;99.90
32446;DHT22;18899;50.748;7.102;2023-02-28T05:18:44;-0.30;99.90
32446;DHT22;18899;50.748;7.102;2023-02-28T05:21:29;-0.20;99.90
32446;DHT22;18899;50.748;7.102;2023-02-28T05:23:57;-0.20;99.90
32446;DHT22;18899;50.748;7.102;2023-02-28T05:26:23;0.00;99.90
32446;DHT22;18899;50.748;7.102;2023-02-28T05:28:49;-0.10;99.90
32446;DHT22;18899;50.748;7.102;2023-02-28T05:31:15;-0.20;99.90
32446;DHT22;18899;50.748;7.102;2023-02-28T05:33:40;-0.30;99.90
32446;DHT22;18899;50.748;7.102;2023-02-28T05:36:06;-0.40;99.90
32446;DHT22;18899;50.748;7.102;2023-02-28T05:38:32;-0.40;99.90
32446;DHT22;18899;50.748;7.102;2023-02-28T05:40:57;-0.30;99.90
32446;DHT22;18899;50.748;7.102;2023-02-28T05:43:23;-0.10;99.90
32446;DHT22;18899;50.748;7.102;2023-02-28T05:45:49;0.00;99.90
32446;DHT22;18899;50.748;7.102;2023-02-28T05:48:14;0.10;99.90
32446;DHT22;18899;50.748;7.102;2023-02-28T05:50:40;0.10;99.90
32446;DHT22;18899;50.748;7.102;2023-02-28T05:53:06;0.10;99.90
32446;DHT22;18899;50.748;7.102;2023-02-28T05:55:31;0.00;99.90
32446;DHT22;18899;50.748;7.102;2023-02-28T05:57:57;0.00;99.90
32446;DHT22;18899;50.748;7.102;2023-02-28T06:00:23;-0.10;99.90
32446;DHT22;18899;50.748;7.102;2023-02-28T06:02:48;0.00;99.90
32446;DHT22;18899;50.748;7.102;2023-02-28T06:05:16;-0.10;99.90
32446;DHT22;18899;50.748;7.102;2023-02-28T06:07:42;0.00;99.90
32446;DHT22;18899;50.748;7.102;2023-02-28T06:10:10;-0.10;99.90
32446;DHT22;18899;50.748;7.102;2023-02-28T06:12:36;-0.20;99.90
32446;DHT22;18899;50.748;7.102;2023-02-28T06:15:03;-0.20;99.90
32446;DHT22;18899;50.748;7.102;2023-02-28T06:17:28;0.00;99.90
32446;DHT22;18899;50.748;7.102;2023-02-28T06:19:54;-0.10;99.90
32446;DHT22;18899;50.748;7.102;2023-02-28T06:22:19;0.00;99.90
32446;DHT22;18899;50.748;7.102;2023-02-28T06:24:45;-0.10;99.90
32446;DHT22;18899;50.748;7.102;2023-02-28T06:27:10;-0.20;99.90
32446;DHT22;18899;50.748;7.102;2023-02-28T06:29:36;-0.10;99.90
32446;DHT22;18899;50.748;7.102;2023-02-28T06:32:05;-0.10;99.90
32446;DHT22;18899;50.748;7.102;2023-02-28T06:34:31;0.10;99.90
32446;DHT22;18899;50.748;7.102;2023-02-28T06:36:56;0.50;99.90
32446;DHT22;18899;50.748;7.102;2023-02-28T06:39:22;1.00;99.90
32446;DHT22;18899;50.748;7.102;2023-02-28T06:41:47;1.60;99.90
32446;DHT22;18899;50.748;7.102;2023-02-28T06:44:16;2.40;99.90
32446;DHT22;18899;50.748;7.102;2023-02-28T06:46:44;3.10;99.90
32446;DHT22;18899;50.748;7.102;2023-02-28T06:49:10;3.80;99.90
32446;DHT22;18899;50.748;7.102;2023-02-28T06:51:38;4.50;99.90
32446;DHT22;18899;50.748;7.102;2023-02-28T06:54:05;4.90;97.30
32446;DHT22;18899;50.748;7.102;2023-02-28T06:56:30;5.40;94.00
32446;DHT22;18899;50.748;7.102;2023-02-28T06:58:56;5.70;92.30
32446;DHT22;18899;50.748;7.102;2023-02-28T07:01:22;6.00;90.40
32446;DHT22;18899;50.748;7.102;2023-02-28T07:03:49;5.90;90.80
32446;DHT22;18899;50.748;7.102;2023-02-28T07:06:18;6.00;89.30
32446;DHT22;18899;50.748;7.102;2023-02-28T07:08:43;6.40;85.00
32446;DHT22;18899;50.748;7.102;2023-02-28T07:11:09;7.20;81.70
32446;DHT22;18899;50.748;7.102;2023-02-28T07:13:35;7.70;77.80
32446;DHT22;18899;50.748;7.102;2023-02-28T07:16:03;7.70;75.30
32446;DHT22;18899;50.748;7.102;2023-02-28T07:18:29;8.20;72.90
32446;DHT22;18899;50.748;7.102;2023-02-28T07:20:55;9.00;70.30
32446;DHT22;18899;50.748;7.102;2023-02-28T07:23:21;8.80;68.40
32446;DHT22;18899;50.748;7.102;2023-02-28T07:25:47;8.90;66.50
32446;DHT22;18899;50.748;7.102;2023-02-28T07:28:13;9.40;65.70
32446;DHT22;18899;50.748;7.102;2023-02-28T07:30:40;10.80;59.60
32446;DHT22;18899;50.748;7.102;2023-02-28T07:33:06;11.00;58.20
32446;DHT22;18899;50.748;7.102;2023-02-28T07:35:31;10.60;58.20
32446;DHT22;18899;50.748;7.102;2023-02-28T07:37:58;10.60;57.80
32446;DHT22;18899;50.748;7.102;2023-02-28T07:40:24;10.90;56.90
32446;DHT22;18899;50.748;7.102;2023-02-28T07:42:50;10.00;58.70
32446;DHT22;18899;50.748;7.102;2023-02-28T07:45:15;10.00;59.00
32446;DHT22;18899;50.748;7.102;2023-02-28T07:47:42;10.10;59.30
32446;DHT22;18899;50.748;7.102;2023-02-28T07:50:09;10.60;57.90
32446;DHT22;18899;50.748;7.102;2023-02-28T07:52:36;11.20;57.20
32446;DHT22;18899;50.748;7.102;2023-02-28T07:55:02;11.20;55.90
32446;DHT22;18899;50.748;7.102;2023-02-28T07:57:28;11.80;53.80
32446;DHT22;18899;50.748;7.102;2023-02-28T07:59:54;11.40;54.80
32446;DHT22;18899;50.748;7.102;2023-02-28T08:02:19;11.50;54.90
32446;DHT22;18899;50.748;7.102;2023-02-28T08:04:45;11.80;54.00
32446;DHT22;18899;50.748;7.102;2023-02-28T08:07:12;11.70;54.60
32446;DHT22;18899;50.748;7.102;2023-02-28T08:09:40;12.10;53.10
32446;DHT22;18899;50.748;7.102;2023-02-28T08:12:06;12.10;52.90
32446;DHT22;18899;50.748;7.102;2023-02-28T08:14:32;11.20;54.30
32446;DHT22;18899;50.748;7.102;2023-02-28T08:16:58;10.80;55.30
32446;DHT22;18899;50.748;7.102;2023-02-28T08:19:23;10.60;55.60
32446;DHT22;18899;50.748;7.102;2023-02-28T08:21:49;10.60;56.00
32446;DHT22;18899;50.748;7.102;2023-02-28T08:24:14;10.30;55.70
32446;DHT22;18899;50.748;7.102;2023-02-28T08:26:40;10.10;56.00
32446;DHT22;18899;50.748;7.102;2023-02-28T08:29:05;9.90;57.70
32446;DHT22;18899;50.748;7.102;2023-02-28T08:31:31;10.20;56.10
32446;DHT22;18899;50.748;7.102;2023-02-28T08:33:56;10.20;56.40
32446;DHT22;18899;50.748;7.102;2023-02-28T08:36:25;9.90;57.00
32446;DHT22;18899;50.748;7.102;2023-02-28T08:38:50;10.10;54.00
32446;DHT22;18899;50.748;7.102;2023-02-28T08:41:16;9.70;55.20
32446;DHT22;18899;50.748;7.102;2023-02-28T08:43:42;9.30;55.60
32446;DHT22;18899;50.748;7.102;2023-02-28T08:46:08;9.30;56.00
32446;DHT22;18899;50.748;7.102;2023-02-28T08:48:35;9.10;55.90
32446;DHT22;18899;50.748;7.102;2023-02-28T08:51:23;8.70;55.60
32446;DHT22;18899;50.748;7.102;2023-02-28T08:53:53;9.10;56.00
32446;DHT22;18899;50.748;7.102;2023-02-28T08:56:19;9.00;55.40
32446;DHT22;18899;50.748;7.102;2023-02-28T08:58:46;9.10;55.00
32446;DHT22;18899;50.748;7.102;2023-02-28T09:01:17;9.70;54.20
32446;DHT22;18899;50.748;7.102;2023-02-28T09:03:44;10.60;51.90
32446;DHT22;18899;50.748;7.102;2023-02-28T09:06:11;10.40;53.30
32446;DHT22;18899;50.748;7.102;2023-02-28T09:08:37;10.00;53.50
32446;DHT22;18899;50.748;7.102;2023-02-28T09:11:03;9.90;54.00
32446;DHT22;18899;50.748;7.102;2023-02-28T09:13:29;10.20;53.50
32446;DHT22;18899;50.748;7.102;2023-02-28T09:15:58;10.20;51.60
32446;DHT22;18899;50.748;7.102;2023-02-28T09:18:24;10.10;51.10
32446;DHT22;18899;50.748;7.102;2023-02-28T09:20:49;9.30;52.20
32446;DHT22;18899;50.748;7.102;2023-02-28T09:23:15;9.20;53.20
32446;DHT22;18899;50.748;7.102;2023-02-28T09:25:52;9.10;51.90
32446;DHT22;18899;50.748;7.102;2023-02-28T09:28:18;8.50;53.90
32446;DHT22;18899;50.748;7.102;2023-02-28T09:30:45;7.90;57.20
32446;DHT22;18899;50.748;7.102;2023-02-28T09:33:12;8.30;54.60
32446;DHT22;18899;50.748;7.102;2023-02-28T09:35:37;9.20;53.00
32446;DHT22;18899;50.748;7.102;2023-02-28T09:38:03;9.60;51.00
32446;DHT22;18899;50.748;7.102;2023-02-28T09:40:29;9.60;50.60
32446;DHT22;18899;50.748;7.102;2023-02-28T09:42:57;9.60;51.20
32446;DHT22;18899;50.748;7.102;2023-02-28T09:45:31;9.20;53.00
32446;DHT22;18899;50.748;7.102;2023-02-28T09:48:06;9.20;52.10
32446;DHT22;18899;50.748;7.102;2023-02-28T09:50:41;9.80;50.70
32446;DHT22;18899;50.748;7.102;2023-02-28T09:53:26;10.40;50.60
32446;DHT22;18899;50.748;7.102;2023-02-28T09:55:59;10.60;49.90
32446;DHT22;18899;50.748;7.102;2023-02-28T09:58:47;10.10;49.20
32446;DHT22;18899;50.748;7.102;2023-02-28T10:01:31;9.70;48.90
32446;DHT22;18899;50.748;7.102;2023-02-28T10:04:16;10.00;51.80
32446;DHT22;18899;50.748;7.102;2023-02-28T10:06:49;10.40;50.40
32446;DHT22;18899;50.748;7.102;2023-02-28T10:09:25;10.90;48.60
32446;DHT22;18899;50.748;7.102;2023-02-28T10:11:55;11.70;46.00
32446;DHT22;18899;50.748;7.102;2023-02-28T10:14:24;11.70;46.40
32446;DHT22;18899;50.748;7.102;2023-02-28T10:19:32;11.70;45.00
32446;DHT22;18899;50.748;7.102;2023-02-28T10:22:11;11.90;44.40
32446;DHT22;18899;50.748;7.102;2023-02-28T10:24:47;11.60;46.60
32446;DHT22;18899;50.748;7.102;2023-02-28T10:27:16;11.50;44.40
32446;DHT22;18899;50.748;7.102;2023-02-28T10:29:48;11.10;44.40
32446;DHT22;18899;50.748;7.102;2023-02-28T10:32:17;10.50;46.70
32446;DHT22;18899;50.748;7.102;2023-02-28T10:34:43;9.90;48.80
32446;DHT22;18899;50.748;7.102;2023-02-28T10:37:11;9.70;48.40
32446;DHT22;18899;50.748;7.102;2023-02-28T10:42:05;8.70;49.80
32446;DHT22;18899;50.748;7.102;2023-02-28T10:44:43;7.60;53.60
32446;DHT22;18899;50.748;7.102;2023-02-28T10:47:15;7.30;53.60
32446;DHT22;18899;50.748;7.102;2023-02-28T10:49:47;6.80;54.40
32446;DHT22;18899;50.748;7.102;2023-02-28T10:52:14;6.30;55.90
32446;DHT22;18899;50.748;7.102;2023-02-28T10:55:24;5.90;56.70
32446;DHT22;18899;50.748;7.102;2023-02-28T10:57:53;5.90;56.10
32446;DHT22;18899;50.748;7.102;2023-02-28T11:00:22;5.80;55.90
32446;DHT22;18899;50.748;7.102;2023-02-28T11:02:48;5.80;57.00
32446;DHT22;18899;50.748;7.102;2023-02-28T11:05:34;5.70;57.20
32446;DHT22;18899;50.748;7.102;2023-02-28T11:08:14;5.80;56.10
32446;DHT22;18899;50.748;7.102;2023-02-28T11:10:45;5.70;56.90
32446;DHT22;18899;50.748;7.102;2023-02-28T11:13:20;5.80;55.70
32446;DHT22;18899;50.748;7.102;2023-02-28T11:16:01;5.80;57.40
32446;DHT22;18899;50.748;7.102;2023-02-28T11:18:36;5.80;58.40
32446;DHT22;18899;50.748;7.102;2023-02-28T11:21:05;5.80;57.50
32446;DHT22;18899;50.748;7.102;2023-02-28T11:23:32;5.80;56.90
32446;DHT22;18899;50.748;7.102;2023-02-28T11:26:02;5.70;56.90
32446;DHT22;18899;50.748;7.102;2023-02-28T11:28:31;5.70;58.00
32446;DHT22;18899;50.748;7.102;2023-02-28T11:31:09;5.70;57.10
32446;DHT22;18899;50.748;7.102;2023-02-28T11:33:40;5.70;59.90
32446;DHT22;18899;50.748;7.102;2023-02-28T11:36:13;5.70;57.50
32446;DHT22;18899;50.748;7.102;2023-02-28T11:38:40;5.80;56.40
32446;DHT22;18899;50.748;7.102;2023-02-28T11:41:26;5.70;57.60
32446;DHT22;18899;50.748;7.102;2023-02-28T11:46:45;5.60;57.70
32446;DHT22;18899;50.748;7.102;2023-02-28T11:52:27;5.80;57.00
32446;DHT22;18899;50.748;7.102;2023-02-28T12:03:26;5.80;58.40
32446;DHT22;18899;50.748;7.102;2023-02-28T12:06:17;5.90;57.50
32446;DHT22;18899;50.748;7.102;2023-02-28T12:08:53;5.70;59.50
32446;DHT22;18899;50.748;7.102;2023-02-28T12:11:34;5.80;57.50
32446;DHT22;18899;50.748;7.102;2023-02-28T12:19:39;6.00;58.10
32446;DHT22;18899;50.748;7.102;2023-02-28T12:22:29;6.10;55.90
32446;DHT22;18899;50.748;7.102;2023-02-28T12:27:55;6.00;57.50
32446;DHT22;18899;50.748;7.102;2023-02-28T12:30:35;6.10;58.00
32446;DHT22;18899;50.748;7.102;2023-02-28T12:33:11;6.20;56.30
32446;DHT22;18899;50.748;7.102;2023-02-28T12:35:54;6.30;56.70
32446;DHT22;18899;50.748;7.102;2023-02-28T12:38:22;6.30;57.10
32446;DHT22;18899;50.748;7.102;2023-02-28T12:40:53;6.30;56.50
32446;DHT22;18899;50.748;7.102;2023-02-28T12:43:20;6.40;56.50
32446;DHT22;18899;50.748;7.102;2023-02-28T12:45:56;6.50;56.50
32446;DHT22;18899;50.748;7.102;2023-02-28T12:48:40;6.40;58.20
32446;DHT22;18899;50.748;7.102;2023-02-28T12:51:08;6.40;58.40
32446;DHT22;18899;50.748;7.102;2023-02-28T12:56:24;6.30;58.50
32446;DHT22;18899;50.748;7.102;2023-02-28T12:59:01;6.30;58.10
32446;DHT22;18899;50.748;7.102;2023-02-28T13:04:32;6.30;57.70
32446;DHT22;18899;50.748;7.102;2023-02-28T13:09:35;6.20;57.60
32446;DHT22;18899;50.748;7.102;2023-02-28T13:12:12;6.20;58.20
32446;DHT22;18899;50.748;7.102;2023-02-28T13:14:39;6.20;57.20
32446;DHT22;18899;50.748;7.102;2023-02-28T13:19:37;6.20;59.80
32446;DHT22;18899;50.748;7.102;2023-02-28T13:22:04;6.20;59.20
32446;DHT22;18899;50.748;7.102;2023-02-28T13:24:46;6.20;61.20
32446;DHT22;18899;50.748;7.102;2023-02-28T13:27:22;6.10;59.60
32446;DHT22;18899;50.748;7.102;2023-02-28T13:29:50;6.10;60.60
32446;DHT22;18899;50.748;7.102;2023-02-28T13:32:19;6.20;60.90
32446;DHT22;18899;50.748;7.102;2023-02-28T13:39:55;6.30;59.00
32446;DHT22;18899;50.748;7.102;2023-02-28T13:50:38;6.20;62.10
32446;DHT22;18899;50.748;7.102;2023-02-28T13:56:18;6.30;60.90
32446;DHT22;18899;50.748;7.102;2023-02-28T14:01:26;6.30;59.50
32446;DHT22;18899;50.748;7.102;2023-02-28T14:06:39;6.30;60.80
32446;DHT22;18899;50.748;7.102;2023-02-28T14:11:54;6.30;58.70
32446;DHT22;18899;50.748;7.102;2023-02-28T14:17:07;6.20;59.30
32446;DHT22;18899;50.748;7.102;2023-02-28T14:19:34;6.20;60.00
32446;DHT22;18899;50.748;7.102;2023-02-28T14:28:02;6.40;58.60
32446;DHT22;18899;50.748;7.102;2023-02-28T14:36:06;6.50;60.70
32446;DHT22;18899;50.748;7.102;2023-02-28T14:38:36;6.50;57.90
32446;DHT22;18899;50.748;7.102;2023-02-28T14:41:14;6.60;59.30
32446;DHT22;18899;50.748;7.102;2023-02-28T14:43:58;6.70;58.50
32446;DHT22;18899;50.748;7.102;2023-02-28T14:46:28;6.70;58.80
32446;DHT22;18899;50.748;7.102;2023-02-28T14:48:55;6.60;60.70
32446;DHT22;18899;50.748;7.102;2023-02-28T14:51:22;6.60;59.10
32446;DHT22;18899;50.748;7.102;2023-02-28T14:53:52;6.60;61.70
32446;DHT22;18899;50.748;7.102;2023-02-28T14:56:22;6.60;60.80
32446;DHT22;18899;50.748;7.102;2023-02-28T14:58:54;6.50;59.50
32446;DHT22;18899;50.748;7.102;2023-02-28T15:01:22;6.60;57.80
32446;DHT22;18899;50.748;7.102;2023-02-28T15:03:48;6.70;59.00
32446;DHT22;18899;50.748;7.102;2023-02-28T15:06:17;6.70;59.70
32446;DHT22;18899;50.748;7.102;2023-02-28T15:08:44;6.60;61.00
32446;DHT22;18899;50.748;7.102;2023-02-28T15:11:20;6.60;59.90
32446;DHT22;18899;50.748;7.102;2023-02-28T15:13:50;6.60;60.90
32446;DHT22;18899;50.748;7.102;2023-02-28T15:16:29;6.50;59.50
32446;DHT22;18899;50.748;7.102;2023-02-28T15:19:02;6.60;58.60
32446;DHT22;18899;50.748;7.102;2023-02-28T15:21:31;6.70;59.30
32446;DHT22;18899;50.748;7.102;2023-02-28T15:26:36;6.70;59.20
32446;DHT22;18899;50.748;7.102;2023-02-28T15:29:15;6.60;59.90
32446;DHT22;18899;50.748;7.102;2023-02-28T15:31:48;6.60;59.30
32446;DHT22;18899;50.748;7.102;2023-02-28T15:37:25;6.20;61.20
32446;DHT22;18899;50.748;7.102;2023-02-28T15:39:52;6.30;59.90
32446;DHT22;18899;50.748;7.102;2023-02-28T15:42:20;6.40;59.80
32446;DHT22;18899;50.748;7.102;2023-02-28T15:44:46;6.50;61.10
32446;DHT22;18899;50.748;7.102;2023-02-28T15:47:27;6.50;64.50
32446;DHT22;18899;50.748;7.102;2023-02-28T15:52:37;6.60;59.90
32446;DHT22;18899;50.748;7.102;2023-02-28T15:55:18;6.70;59.70
32446;DHT22;18899;50.748;7.102;2023-02-28T15:57:45;6.70;58.10
32446;DHT22;18899;50.748;7.102;2023-02-28T16:00:14;6.60;57.90
32446;DHT22;18899;50.748;7.102;2023-02-28T16:02:40;6.50;59.40
32446;DHT22;18899;50.748;7.102;2023-02-28T16:07:44;6.50;60.30
32446;DHT22;18899;50.748;7.102;2023-02-28T16:10:12;6.30;61.50
32446;DHT22;18899;50.748;7.102;2023-02-28T16:12:40;6.50;62.20
32446;DHT22;18899;50.748;7.102;2023-02-28T16:15:14;6.50;59.80
32446;DHT22;18899;50.748;7.102;2023-02-28T16:17:42;6.60;58.80
32446;DHT22;18899;50.748;7.102;2023-02-28T16:20:22;6.50;60.50
32446;DHT22;18899;50.748;7.102;2023-02-28T16:22:48;6.40;61.10
32446;DHT22;18899;50.748;7.102;2023-02-28T16:25:15;6.50;59.90
32446;DHT22;18899;50.748;7.102;2023-02-28T16:27:42;6.60;62.00
32446;DHT22;18899;50.748;7.102;2023-02-28T16:30:18;6.60;62.70
32446;DHT22;18899;50.748;7.102;2023-02-28T16:32:44;6.50;61.10
32446;DHT22;18899;50.748;7.102;2023-02-28T16:35:11;6.50;60.40
32446;DHT22;18899;50.748;7.102;2023-02-28T16:37:37;6.50;60.80
32446;DHT22;18899;50.748;7.102;2023-02-28T16:40:03;6.40;62.30
32446;DHT22;18899;50.748;7.102;2023-02-28T16:42:28;6.40;60.60
32446;DHT22;18899;50.748;7.102;2023-02-28T16:44:56;6.40;61.00
32446;DHT22;18899;50.748;7.102;2023-02-28T16:47:22;6.40;61.00
32446;DHT22;18899;50.748;7.102;2023-02-28T16:49:47;6.40;61.80
32446;DHT22;18899;50.748;7.102;2023-02-28T16:52:13;6.30;61.80
32446;DHT22;18899;50.748;7.102;2023-02-28T16:54:40;6.40;60.20
32446;DHT22;18899;50.748;7.102;2023-02-28T16:57:18;6.40;60.70
32446;DHT22;18899;50.748;7.102;2023-02-28T16:59:45;6.30;62.00
32446;DHT22;18899;50.748;7.102;2023-02-28T17:02:13;6.20;62.50
32446;DHT22;18899;50.748;7.102;2023-02-28T17:04:39;6.20;62.00
32446;DHT22;18899;50.748;7.102;2023-02-28T17:07:04;6.10;63.60
32446;DHT22;18899;50.748;7.102;2023-02-28T17:09:30;6.10;62.00
32446;DHT22;18899;50.748;7.102;2023-02-28T17:11:56;6.00;62.90
32446;DHT22;18899;50.748;7.102;2023-02-28T17:14:22;5.80;64.00
32446;DHT22;18899;50.748;7.102;2023-02-28T17:16:48;5.60;65.10
32446;DHT22;18899;50.748;7.102;2023-02-28T17:19:16;5.60;64.70
32446;DHT22;18899;50.748;7.102;2023-02-28T17:21:42;5.80;64.10
32446;DHT22;18899;50.748;7.102;2023-02-28T17:24:09;5.70;65.70
32446;DHT22;18899;50.748;7.102;2023-02-28T17:26:38;5.40;67.40
32446;DHT22;18899;50.748;7.102;2023-02-28T17:29:06;5.20;68.70
32446;DHT22;18899;50.748;7.102;2023-02-28T17:31:38;5.10;69.20
32446;DHT22;18899;50.748;7.102;2023-02-28T17:34:04;5.00;69.40
32446;DHT22;18899;50.748;7.102;2023-02-28T17:36:30;5.10;69.20
32446;DHT22;18899;50.748;7.102;2023-02-28T17:38:55;5.00;71.80
32446;DHT22;18899;50.748;7.102;2023-02-28T17:41:21;5.00;73.70
32446;DHT22;18899;50.748;7.102;2023-02-28T17:43:47;4.90;75.00
32446;DHT22;18899;50.748;7.102;2023-02-28T17:46:18;4.70;71.50
32446;DHT22;18899;50.748;7.102;2023-02-28T17:48:46;4.70;75.40
32446;DHT22;18899;50.748;7.102;2023-02-28T17:51:13;5.00;70.40
32446;DHT22;18899;50.748;7.102;2023-02-28T17:53:39;5.00;71.80
32446;DHT22;18899;50.748;7.102;2023-02-28T17:56:05;5.10;69.20